Terminal Aerodrome Forecast
Issued by NWS

Home | Current Version | Previous Version | Graphics & Text | Print | Product List | Glossary On
Versions: 1 2 3 4 5 6 7 8 9 10 11 12 13 14 15 16 17 18 19 20 21 22 23 24 25 26 27
000
FTUS43 KLOT 301120
TAFMDW
TAF
KMDW 301120Z 3012/3112 26003KT 4SM -TSRA BR BKN040CB BKN080
     FM301400 26005KT P6SM SCT040 BKN080
     FM301800 25008KT P6SM VCSH BKN035 PROB30 3021/3024 2SM TSRA
      SCT020 OVC030CB
     FM310000 28005KT P6SM SCT040 BKN180
     FM310800 33006KT P6SM SCT040 BKN180=

USA.gov is the U.S. government's official web portal to all federal, state and local government web resources and services.